Terminal Aerodrome Forecast
Issued by NWS

Home | Current Version | Previous Version | Text Only | Print | Product List | Glossary On
Versions: 1 2 3 4 5 6 7 8 9 10 11 12 13 14 15 16 17 18
000
FTUS44 KLZK 220800 AAA
TAFLLQ
TAF AMD
KLLQ 220815Z 2208/2306 15007KT P6SM BKN005 OVC010
     FM221600 16008KT P6SM OVC010
     FM221900 19006KT P6SM VCSH OVC020
     FM222300 21006KT P6SM BKN025 BKN250
     FM230300 29007KT P6SM SCT025 BKN250=

USA.gov is the U.S. government's official web portal to all federal, state and local government web resources and services.